KSLO/SLO METAR and TAF weather

Enter ICAO airport designator
Station Type Date Time Source
KSLO METAR 2020/06/06 02:15 UTC NOAA

KSLO 060215Z AUTO 00000KT 10SM CLR 26/22 A2994 RMK AO2 T02640220


Station Type Date Time Source
KSLO Decoded METAR 2020/06/06 02:15 UTC NOAA

Salem, Salem-Leckrone Airport, IL, United States (KSLO) 38-38-34N 088-57-51W 174M
Jun 05, 2020 - 10:15 PM EDT / 2020.06.06 0215 UTC
Wind: Calm:0
Visibility: 10 mile(s):0
Sky conditions: clear
Temperature: 79.5 F (26.4 C)
Dew Point: 71.6 F (22.0 C)
Relative Humidity: 76%
Pressure (altimeter): 29.94 in. Hg (1013 hPa)
ob: KSLO 060215Z AUTO 00000KT 10SM CLR 26/22 A2994 RMK AO2 T02640220
cycle: 2

Station Type Date Time Source
KSLO TAF UTC NOAA

Error!

Example: see airport list